Minerva Atlantica — ZCPR7 — position and weather

sailwx.info

Track history (hours):
 
Tides and Currents Weather Stations Pressure Air Temp Water Temp Dewpoint Dewpoint Depression Visibility Wind Speed Wind Dir Waves Ship Positions

Minerva Atlantica

Last reported at 2016-Dec-06 09:19 UTC. Time now 2016-Dec-06 12:16 UTC.
Position N 52°08' E 002°46'.

Length 250 m; draft 14 m.

Type: Ship (hazmat cat B). MMSI: 319161000.

Date/timePositionNaut miles runAvg speedWind from/ knotsBaromVisibWave heightAir tempDewpointWater temp
2016-Dec-06 09:19N 52°08' E 002°46'0 0.0
2016-Dec-06 08:31N 52°08' E 002°46'0 0.0
2016-Dec-06 06:31N 52°08' E 002°46'0 0.0
2016-Dec-06 05:28N 52°08' E 002°46'0 0.2
2016-Dec-06 04:28N 52°08' E 002°46'0 0.1
2016-Dec-06 02:28N 52°08' E 002°46'0 0.0
2016-Dec-06 00:16N 52°08' E 002°46'0 0.1
2016-Dec-05 20:31N 52°08' E 002°46'0 0.0
2016-Dec-05 19:25N 52°08' E 002°46'0 0.0
2016-Dec-05 18:25N 52°08' E 002°46'0 0.0
2016-Dec-05 16:28N 52°08' E 002°46'0 0.1
2016-Dec-05 15:31N 52°08' E 002°46'0 0.0
2016-Dec-05 08:25N 52°08' E 002°46'0 0.0
2016-Dec-05 07:04N 52°08' E 002°46'0 0.0
2016-Dec-05 05:31N 52°08' E 002°46'0 0.1
2016-Dec-05 02:10N 52°08' E 002°46'0 0.0
2016-Dec-04 20:13N 52°08' E 002°46'0 0.1
2016-Dec-04 19:13N 52°08' E 002°46'0 0.1
2016-Dec-04 18:25N 52°08' E 002°46'0 0.0
2016-Dec-04 17:19N 52°08' E 002°46'0 0.0
2016-Dec-04 16:28N 52°08' E 002°46'0 0.2
2016-Dec-04 15:31N 52°08' E 002°46'0 0.1
2016-Dec-04 14:28N 52°08' E 002°46'0 0.1
2016-Dec-04 13:31N 52°08' E 002°46'0 0.0
2016-Dec-04 12:25N 52°08' E 002°46'  
2016-Nov-30 02:03N 57°53' E 010°42'510.0
2016-Nov-30 01:33N 57°54' E 010°52'8 8.2
2016-Nov-30 00:33N 57°46' E 010°48'9 8.7
2016-Nov-29 23:33N 57°39' E 010°57'1110.9
2016-Nov-29 22:33N 57°33' E 011°15'1111.0
2016-Nov-29 21:33N 57°25' E 011°28'1211.7
2016-Nov-29 20:33N 57°14' E 011°36'1211.8
2016-Nov-29 19:33N 57°03' E 011°43'3710.9
2016-Nov-29 16:11N 56°26' E 011°34'2012.1
2016-Nov-29 14:33N 56°10' E 011°15'5210.4
2016-Nov-29 09:31N 55°18' E 011°03'1010.0
2016-Nov-29 08:33N 55°08' E 010°59'1111.2
2016-Nov-29 07:33N 54°57' E 010°56'1211.7
2016-Nov-29 06:34N 54°46' E 010°49'10 9.7
2016-Nov-29 05:33N 54°38' E 010°56'1111.3
2016-Nov-29 04:33N 54°35' E 011°15'1211.7
2016-Nov-29 03:34N 54°30' E 011°33'1111.5
2016-Nov-29 02:33N 54°27' E 011°52'1111.2
2016-Nov-29 01:34N 54°27' E 012°11'1110.6
2016-Nov-29 00:33N 54°37' E 012°18'1211.4
2016-Nov-28 23:32N 54°43' E 012°35'1211.8
2016-Nov-28 22:32N 54°49' E 012°53'3012.3
2016-Nov-28 20:05N 54°60' E 013°42'712.4
2016-Nov-28 19:32N 55°02' E 013°53'1211.8
2016-Nov-28 18:33N 55°09' E 014°10'1212.2
2016-Nov-28 17:33N 55°18' E 014°23'1212.2
2016-Nov-28 16:33N 55°28' E 014°37'1212.4
2016-Nov-28 15:33N 55°33' E 014°56'1212.3
2016-Nov-28 14:33N 55°38' E 015°16'1312.5
2016-Nov-28 13:31N 55°42' E 015°38'33611.6
2016-Nov-27 08:33N 59°36' E 023°07'1312.5
2016-Nov-27 07:33N 59°40' E 023°31'1212.4
2016-Nov-27 06:33N 59°43' E 023°54'1312.5
2016-Nov-27 05:33N 59°47' E 024°19'1212.5
2016-Nov-27 04:33N 59°49' E 024°43'4412.5
2016-Nov-27 01:04N 59°58' E 026°08'712.5
2016-Nov-27 00:32N 59°60' E 026°21'1212.3
2016-Nov-26 23:34N 60°01' E 026°45'1411.5
2016-Nov-26 22:23N 60°02' E 027°12'1012.5
2016-Nov-26 21:33N 60°07' E 027°29'1211.6
2016-Nov-26 20:32N 60°12' E 027°51'1211.9
2016-Nov-26 19:33N 60°09' E 028°14'1111.1
2016-Nov-26 18:34N 60°09' E 028°36'9 8.7
2016-Nov-26 17:33N 60°16' E 028°47'  
Track history (hours):
 
Tides and Currents Weather Stations Pressure Air Temp Water Temp Dewpoint Dewpoint Depression Visibility Wind Speed Wind Dir Waves Ship Positions

Minerva Atlantica

Last reported at 2016-Dec-06 09:19 UTC. Time now 2016-Dec-06 12:16 UTC.
Position N 52°08' E 002°46'.

Length 250 m; draft 14 m.

Type: Ship (hazmat cat B). MMSI: 319161000.

Date/timePositionNaut miles runAvg speedWind from/ knotsBaromVisibWave heightAir tempDewpointWater temp
2016-Dec-06 09:19N 52°08' E 002°46'0 0.0
2016-Dec-06 08:31N 52°08' E 002°46'0 0.0
2016-Dec-06 06:31N 52°08' E 002°46'0 0.0
2016-Dec-06 05:28N 52°08' E 002°46'0 0.2
2016-Dec-06 04:28N 52°08' E 002°46'0 0.1
2016-Dec-06 02:28N 52°08' E 002°46'0 0.0
2016-Dec-06 00:16N 52°08' E 002°46'0 0.1
2016-Dec-05 20:31N 52°08' E 002°46'0 0.0
2016-Dec-05 19:25N 52°08' E 002°46'0 0.0
2016-Dec-05 18:25N 52°08' E 002°46'0 0.0
2016-Dec-05 16:28N 52°08' E 002°46'0 0.1
2016-Dec-05 15:31N 52°08' E 002°46'0 0.0
2016-Dec-05 08:25N 52°08' E 002°46'0 0.0
2016-Dec-05 07:04N 52°08' E 002°46'0 0.0
2016-Dec-05 05:31N 52°08' E 002°46'0 0.1
2016-Dec-05 02:10N 52°08' E 002°46'0 0.0
2016-Dec-04 20:13N 52°08' E 002°46'0 0.1
2016-Dec-04 19:13N 52°08' E 002°46'0 0.1
2016-Dec-04 18:25N 52°08' E 002°46'0 0.0
2016-Dec-04 17:19N 52°08' E 002°46'0 0.0
2016-Dec-04 16:28N 52°08' E 002°46'0 0.2
2016-Dec-04 15:31N 52°08' E 002°46'0 0.1
2016-Dec-04 14:28N 52°08' E 002°46'0 0.1
2016-Dec-04 13:31N 52°08' E 002°46'0 0.0
2016-Dec-04 12:25N 52°08' E 002°46'  
2016-Nov-30 02:03N 57°53' E 010°42'510.0
2016-Nov-30 01:33N 57°54' E 010°52'8 8.2
2016-Nov-30 00:33N 57°46' E 010°48'9 8.7
2016-Nov-29 23:33N 57°39' E 010°57'1110.9
2016-Nov-29 22:33N 57°33' E 011°15'1111.0
2016-Nov-29 21:33N 57°25' E 011°28'1211.7
2016-Nov-29 20:33N 57°14' E 011°36'1211.8
2016-Nov-29 19:33N 57°03' E 011°43'3710.9
2016-Nov-29 16:11N 56°26' E 011°34'2012.1
2016-Nov-29 14:33N 56°10' E 011°15'5210.4
2016-Nov-29 09:31N 55°18' E 011°03'1010.0
2016-Nov-29 08:33N 55°08' E 010°59'1111.2
2016-Nov-29 07:33N 54°57' E 010°56'1211.7
2016-Nov-29 06:34N 54°46' E 010°49'10 9.7
2016-Nov-29 05:33N 54°38' E 010°56'1111.3
2016-Nov-29 04:33N 54°35' E 011°15'1211.7
2016-Nov-29 03:34N 54°30' E 011°33'1111.5
2016-Nov-29 02:33N 54°27' E 011°52'1111.2
2016-Nov-29 01:34N 54°27' E 012°11'1110.6
2016-Nov-29 00:33N 54°37' E 012°18'1211.4
2016-Nov-28 23:32N 54°43' E 012°35'1211.8
2016-Nov-28 22:32N 54°49' E 012°53'3012.3
2016-Nov-28 20:05N 54°60' E 013°42'712.4
2016-Nov-28 19:32N 55°02' E 013°53'1211.8
2016-Nov-28 18:33N 55°09' E 014°10'1212.2
2016-Nov-28 17:33N 55°18' E 014°23'1212.2
2016-Nov-28 16:33N 55°28' E 014°37'1212.4
2016-Nov-28 15:33N 55°33' E 014°56'1212.3
2016-Nov-28 14:33N 55°38' E 015°16'1312.5
2016-Nov-28 13:31N 55°42' E 015°38'33611.6
2016-Nov-27 08:33N 59°36' E 023°07'1312.5
2016-Nov-27 07:33N 59°40' E 023°31'1212.4
2016-Nov-27 06:33N 59°43' E 023°54'1312.5
2016-Nov-27 05:33N 59°47' E 024°19'1212.5
2016-Nov-27 04:33N 59°49' E 024°43'4412.5
2016-Nov-27 01:04N 59°58' E 026°08'712.5
2016-Nov-27 00:32N 59°60' E 026°21'1212.3
2016-Nov-26 23:34N 60°01' E 026°45'1411.5
2016-Nov-26 22:23N 60°02' E 027°12'1012.5
2016-Nov-26 21:33N 60°07' E 027°29'1211.6
2016-Nov-26 20:32N 60°12' E 027°51'1211.9
2016-Nov-26 19:33N 60°09' E 028°14'1111.1
2016-Nov-26 18:34N 60°09' E 028°36'9 8.7
2016-Nov-26 17:33N 60°16' E 028°47'  

Dump ship's entire track history